ADDS METAR Data INFO
IDs: Format: Raw Decoded Include TAF

Data at: 0945 UTC 20 Nov 2017

METAR for:KMIE (Muncie/Johnson Fld, IN, US)
Text:KMIE 200853Z AUTO 23004KT 10SM CLR M02/M06 A3013 RMK AO2 SLP210 T10221061 50000
Temperature: -2.2°C ( 28°F)
Dewpoint: -6.1°C ( 21°F) [RH = 75%]
Pressure (altimeter):30.13 inches Hg (1020.4 mb) [Sea level pressure: 1021.0 mb]
Winds:from the SW (230 degrees) at 5 MPH (4 knots; 2.1 m/s)
Visibility:10 or more sm (16+ km)
Ceiling:at least 12,000 feet AGL
Clouds:sky clear below 12,000 feet AGL
QC Flag:automated observation with no human augmentation